Time;durP1;ratioP1;P1;durP2;ratioP2;P2;SDS_P1;SDS_P2;PMS_P1;PMS_P2;Temp;Humidity;BMP_temperature;BMP_pressure;BME280_temperature;BME280_humidity;BME280_pressure;Samples;Min_cycle;Max_cycle;Signal;HPM_P1;HPM_P2
2023/03/12 00:01:58;;;;;;;5.40;1.70;;;;;;;3.42;100.00;93955.09;5009418;28;20181;-53
2023/03/12 00:04:25;;;;;;;4.17;3.20;;;;;;;3.30;100.00;93933.31;5009461;28;20330;-58
2023/03/12 00:06:51;;;;;;;5.23;2.03;;;;;;;3.34;100.00;93959.84;5009286;28;20215;-57
2023/03/12 00:09:16;;;;;;;3.57;2.00;;;;;;;3.35;100.00;93971.50;5007929;28;20222;-56
2023/03/12 00:11:41;;;;;;;5.47;2.33;;;;;;;3.27;100.00;93982.03;4991642;28;20187;-59
2023/03/12 00:14:07;;;;;;;3.50;2.33;;;;;;;3.26;100.00;93972.09;5009047;28;20235;-53
2023/03/12 00:16:32;;;;;;;4.20;2.60;;;;;;;3.22;100.00;93989.09;5009120;28;20202;-57
2023/03/12 00:18:58;;;;;;;6.73;2.77;;;;;;;3.22;100.00;93971.53;5009336;28;20235;-53
2023/03/12 00:21:24;;;;;;;5.73;2.73;;;;;;;3.20;100.00;93985.88;5009133;28;20209;-52
2023/03/12 00:23:51;;;;;;;6.27;2.90;;;;;;;3.08;100.00;93961.59;5009243;28;20207;-54
2023/03/12 00:26:18;;;;;;;7.87;2.67;;;;;;;3.18;100.00;93946.72;5008821;28;20232;-58
2023/03/12 00:28:43;;;;;;;6.73;2.60;;;;;;;3.11;100.00;93965.63;5009101;28;20275;-54
2023/03/12 00:31:35;;;;;;;4.57;2.83;;;;;;;3.18;100.00;93966.78;5008794;28;20274;-54
2023/03/12 00:34:01;;;;;;;4.73;2.60;;;;;;;3.07;100.00;93969.25;5009576;28;20283;-54
2023/03/12 00:36:29;;;;;;;11.87;3.23;;;;;;;3.00;100.00;93933.69;5008723;28;20195;-57
2023/03/12 00:38:55;;;;;;;4.13;2.37;;;;;;;3.05;100.00;93934.19;5009120;28;20207;-53
2023/03/12 00:41:21;;;;;;;4.17;3.33;;;;;;;3.07;100.00;93939.13;5007894;28;20255;-56
2023/03/12 00:43:48;;;;;;;9.93;2.53;;;;;;;2.99;100.00;93947.13;5008928;28;20226;-54
2023/03/12 00:46:13;;;;;;;2.93;2.53;;;;;;;2.96;100.00;93941.53;5008742;28;20206;-53
2023/03/12 00:48:39;;;;;;;4.00;3.03;;;;;;;2.88;100.00;93959.63;5008747;28;20232;-54
2023/03/12 00:51:06;;;;;;;6.03;3.10;;;;;;;2.93;100.00;93957.59;5008786;28;20244;-56
2023/03/12 00:53:32;;;;;;;3.63;3.10;;;;;;;2.89;100.00;93953.69;5007110;28;20251;-58
2023/03/12 00:55:57;;;;;;;3.93;2.93;;;;;;;2.94;100.00;93946.66;5008616;28;20696;-54
2023/03/12 00:58:23;;;;;;;3.10;2.80;;;;;;;2.92;100.00;93963.53;5008631;28;20694;-54
2023/03/12 01:00:48;;;;;;;3.53;2.93;;;;;;;2.90;100.00;93940.25;5008621;28;20256;-55
2023/03/12 01:03:13;;;;;;;4.73;3.20;;;;;;;2.94;100.00;93954.19;5008780;28;20285;-56
2023/03/12 01:05:39;;;;;;;4.77;3.20;;;;;;;2.90;100.00;93944.44;5008288;28;20222;-53
2023/03/12 01:08:08;;;;;;;3.67;2.97;;;;;;;2.77;100.00;93931.91;5008478;28;20650;-53
2023/03/12 01:10:35;;;;;;;5.07;2.93;;;;;;;2.72;100.00;93905.53;5008391;28;20372;-54
2023/03/12 01:13:01;;;;;;;4.20;2.60;;;;;;;2.72;100.00;93896.31;5008298;28;20201;-56
2023/03/12 01:15:27;;;;;;;3.90;3.10;;;;;;;2.65;100.00;93902.63;5007055;28;20305;-59
2023/03/12 01:17:52;;;;;;;8.27;2.70;;;;;;;2.68;100.00;93919.19;5008256;28;20187;-57
2023/03/12 01:20:18;;;;;;;4.23;2.83;;;;;;;2.50;100.00;93883.56;5008086;28;20224;-57
2023/03/12 01:22:44;;;;;;;7.50;3.03;;;;;;;2.47;100.00;93883.75;5007000;28;20206;-55
2023/03/12 01:25:11;;;;;;;4.30;2.90;;;;;;;2.55;100.00;93869.81;5008598;28;20219;-53
2023/03/12 01:27:36;;;;;;;3.43;2.97;;;;;;;2.49;100.00;93867.72;5008016;28;20224;-55
2023/03/12 01:30:03;;;;;;;6.20;2.80;;;;;;;2.54;100.00;93862.41;5008467;28;20215;-57
2023/03/12 01:32:29;;;;;;;2.83;2.60;;;;;;;2.45;100.00;93846.25;5008153;28;20191;-56
2023/03/12 01:34:56;;;;;;;3.13;2.60;;;;;;;2.50;100.00;93845.97;5006741;28;20320;-54
2023/03/12 01:37:22;;;;;;;4.10;2.70;;;;;;;2.49;100.00;93819.25;5008024;28;20274;-53
2023/03/12 01:39:47;;;;;;;3.27;2.70;;;;;;;2.57;100.00;93852.16;5007848;28;20301;-53
2023/03/12 01:42:13;;;;;;;2.67;2.47;;;;;;;2.33;100.00;93844.56;5007855;28;20202;-53
2023/03/12 01:45:01;;;;;;;4.07;2.80;;;;;;;2.36;100.00;93828.53;5007764;28;20606;-58
2023/03/12 01:47:30;;;;;;;5.20;3.00;;;;;;;2.37;100.00;93861.00;5007980;28;20675;-57
2023/03/12 01:49:58;;;;;;;5.13;2.87;;;;;;;2.47;100.00;93849.47;5008250;28;20700;-53
2023/03/12 01:52:28;;;;;;;4.00;2.83;;;;;;;2.35;100.00;93855.28;5009774;28;20248;-53
2023/03/12 01:55:10;;;;;;;4.07;2.83;;;;;;;2.35;100.00;93841.94;5010994;28;20226;-57
2023/03/12 01:57:45;;;;;;;3.40;2.90;;;;;;;2.28;100.00;93855.81;5009644;28;20198;-56
2023/03/12 02:00:20;;;;;;;3.93;3.13;;;;;;;2.25;100.00;93881.88;5010835;28;20221;-52
2023/03/12 02:02:47;;;;;;;3.80;3.07;;;;;;;2.36;100.00;93913.78;5010998;28;20243;-54
2023/03/12 02:05:32;;;;;;;3.73;2.73;;;;;;;2.43;100.00;93902.41;5010658;28;20298;-54
2023/03/12 02:07:57;;;;;;;3.23;2.93;;;;;;;2.35;100.00;93902.13;5010721;28;20181;-53
2023/03/12 02:10:24;;;;;;;9.00;3.33;;;;;;;2.42;100.00;93899.09;5010638;28;20297;-54
2023/03/12 02:12:49;;;;;;;4.87;3.03;;;;;;;2.48;100.00;93885.38;5010533;28;20243;-54
2023/03/12 02:15:15;;;;;;;4.90;3.00;;;;;;;2.43;100.00;93900.72;5010529;28;20211;-53
2023/03/12 02:17:41;;;;;;;4.60;2.37;;;;;;;2.42;100.00;93888.28;5010492;28;20623;-56
2023/03/12 02:20:16;;;;;;;4.90;2.97;;;;;;;2.49;100.00;93902.03;5010676;28;20217;-52
2023/03/12 02:22:45;;;;;;;3.97;2.27;;;;;;;2.63;100.00;93901.91;5010349;28;20190;-53
2023/03/12 02:25:29;;;;;;;3.70;2.77;;;;;;;2.54;100.00;93927.63;5009038;28;20254;-54
2023/03/12 02:27:57;;;;;;;3.77;2.40;;;;;;;2.55;100.00;93956.78;5010286;28;20210;-52
2023/03/12 02:30:23;;;;;;;6.17;3.03;;;;;;;2.54;100.00;93918.34;5010346;28;20691;-57
2023/03/12 02:32:49;;;;;;;2.30;2.10;;;;;;;2.51;100.00;93942.84;5009087;28;20278;-55
2023/03/12 02:35:16;;;;;;;1.97;1.80;;;;;;;2.52;100.00;93911.88;5010575;28;20217;-54
2023/03/12 02:37:53;;;;;;;3.90;2.77;;;;;;;2.45;100.00;93923.19;5010262;28;20202;-54
2023/03/12 02:40:28;;;;;;;2.50;2.30;;;;;;;2.34;100.00;93896.28;5010238;28;20263;-52
2023/03/12 02:42:54;;;;;;;5.00;2.50;;;;;;;2.29;100.00;93892.50;5010211;28;20182;-52
2023/03/12 02:45:20;;;;;;;5.73;2.27;;;;;;;2.28;100.00;93900.94;5008738;28;20214;-58
2023/03/12 02:47:45;;;;;;;4.67;1.97;;;;;;;2.36;100.00;93896.22;5010154;28;20206;-52
2023/03/12 02:50:11;;;;;;;2.60;2.40;;;;;;;2.16;100.00;93851.59;5010166;28;20779;-56
2023/03/12 02:52:37;;;;;;;3.07;2.53;;;;;;;2.19;100.00;93856.38;5010145;28;20174;-56
2023/03/12 02:55:04;;;;;;;3.13;2.20;;;;;;;2.21;100.00;93845.38;5008945;28;20211;-58
2023/03/12 02:57:29;;;;;;;2.97;2.50;;;;;;;2.11;100.00;93836.84;5010111;28;20178;-54
2023/03/12 02:59:55;;;;;;;4.90;2.80;;;;;;;2.14;100.00;93836.63;5010335;28;20222;-53
2023/03/12 03:02:20;;;;;;;3.63;2.27;;;;;;;2.14;100.00;93844.16;5009914;28;20194;-52
2023/03/12 03:04:46;;;;;;;4.13;2.50;;;;;;;2.18;100.00;93825.50;5007953;28;20203;-58
2023/03/12 03:07:11;;;;;;;2.53;2.13;;;;;;;2.11;100.00;93831.03;5009945;28;20318;-57
2023/03/12 03:09:37;;;;;;;3.10;2.40;;;;;;;2.15;100.00;93832.44;5008642;28;20267;-57
2023/03/12 03:12:03;;;;;;;3.30;2.80;;;;;;;2.11;100.00;93834.34;5009687;28;20564;-57
2023/03/12 03:14:28;;;;;;;5.13;2.90;;;;;;;2.10;100.00;93836.94;5009824;28;20219;-57
2023/03/12 03:16:53;;;;;;;3.03;2.43;;;;;;;2.08;100.00;93818.72;5009856;28;20268;-57
2023/03/12 03:19:19;;;;;;;4.20;2.70;;;;;;;2.19;100.00;93869.72;5009951;28;20224;-55
2023/03/12 03:21:45;;;;;;;5.47;2.77;;;;;;;2.25;100.00;93901.91;5009899;28;20195;-53
2023/03/12 03:24:10;;;;;;;2.40;2.20;;;;;;;2.18;100.00;93904.94;5009927;28;20227;-54
2023/03/12 03:26:36;;;;;;;2.17;1.97;;;;;;;2.16;100.00;93907.50;5009469;28;20245;-52
2023/03/12 03:29:02;;;;;;;2.53;1.97;;;;;;;2.08;100.00;93923.97;5009786;28;20236;-53
2023/03/12 03:31:27;;;;;;;2.50;2.20;;;;;;;2.03;100.00;93924.25;5009514;28;20208;-56
2023/03/12 03:33:53;;;;;;;4.67;2.70;;;;;;;2.04;100.00;93940.88;5008337;28;20218;-54
2023/03/12 03:36:18;;;;;;;2.57;1.80;;;;;;;2.00;100.00;93941.19;5009443;28;20670;-54
2023/03/12 03:38:48;;;;;;;2.20;1.97;;;;;;;2.03;100.00;93951.81;5009684;28;20663;-53
2023/03/12 03:41:14;;;;;;;3.40;1.90;;;;;;;2.02;100.00;93965.22;5009438;28;20199;-53
2023/03/12 03:43:40;;;;;;;2.67;1.83;;;;;;;2.02;100.00;93989.50;5009354;28;20573;-55
2023/03/12 03:46:05;;;;;;;2.83;1.60;;;;;;;2.02;100.00;93990.28;5009366;28;20214;-55
2023/03/12 03:48:31;;;;;;;2.40;1.70;;;;;;;1.94;100.00;93964.91;5009476;28;20187;-53
2023/03/12 03:51:02;;;;;;;3.00;1.90;;;;;;;2.01;100.00;93968.66;5009369;28;20195;-53
2023/03/12 03:53:27;;;;;;;7.47;2.33;;;;;;;1.95;100.00;93993.28;5009340;28;20187;-58
2023/03/12 03:55:53;;;;;;;1.53;1.43;;;;;;;1.96;100.00;94005.72;5009170;28;20194;-54
2023/03/12 03:58:18;;;;;;;6.20;1.97;;;;;;;2.06;100.00;93995.94;5009154;28;20273;-58
2023/03/12 04:00:50;;;;;;;2.07;1.87;;;;;;;2.10;100.00;94027.44;5009200;28;20210;-54
2023/03/12 04:03:23;;;;;;;2.57;1.73;;;;;;;2.15;100.00;94091.41;5009299;28;20209;-57
2023/03/12 04:05:59;;;;;;;2.70;1.80;;;;;;;2.11;100.00;94092.50;5007875;28;20892;-53
2023/03/12 04:08:25;;;;;;;2.00;1.60;;;;;;;2.12;99.98;94104.13;5009355;28;20242;-52
2023/03/12 04:10:51;;;;;;;2.20;1.40;;;;;;;2.08;100.00;94089.38;5009121;28;20209;-54
2023/03/12 04:13:17;;;;;;;1.93;1.60;;;;;;;2.10;100.00;94072.53;5009219;28;20191;-53
2023/03/12 04:15:51;;;;;;;1.37;1.27;;;;;;;2.04;100.00;94090.47;5007468;28;20298;-57
2023/03/12 04:18:17;;;;;;;5.27;2.10;;;;;;;1.98;100.00;94106.66;5009208;28;20203;-55
2023/03/12 04:20:43;;;;;;;2.50;2.30;;;;;;;1.91;99.49;94132.19;5008956;28;20212;-58
2023/03/12 04:23:09;;;;;;;1.50;1.40;;;;;;;1.83;98.33;94155.19;5007606;28;20618;-56
2023/03/12 04:25:35;;;;;;;1.40;1.30;;;;;;;1.91;97.23;94192.31;5008897;28;20207;-57
2023/03/12 04:28:01;;;;;;;2.10;1.70;;;;;;;1.89;97.97;94179.88;5008781;28;20183;-56
2023/03/12 04:30:26;;;;;;;1.50;1.10;;;;;;;1.89;97.38;94196.63;5009011;28;20210;-52
2023/03/12 04:32:52;;;;;;;2.90;1.40;;;;;;;1.77;96.64;94197.31;5008880;28;20335;-57
2023/03/12 04:35:19;;;;;;;1.70;1.60;;;;;;;1.77;97.99;94184.81;5008809;28;20676;-56
2023/03/12 04:37:44;;;;;;;3.47;1.70;;;;;;;1.72;97.64;94172.53;5008629;28;20191;-57
2023/03/12 04:40:11;;;;;;;1.50;1.40;;;;;;;1.56;98.42;94160.13;4991027;28;20217;-58
2023/03/12 04:42:37;;;;;;;2.30;1.50;;;;;;;1.65;98.35;94166.28;5008765;28;20180;-56
2023/03/12 04:45:05;;;;;;;3.07;1.37;;;;;;;1.60;98.78;94168.25;5008715;28;20768;-58
2023/03/12 04:47:32;;;;;;;1.40;1.27;;;;;;;1.70;99.01;94175.13;5007241;28;20226;-53
2023/03/12 04:49:58;;;;;;;1.90;1.60;;;;;;;1.73;98.22;94211.75;5009157;28;20217;-57
2023/03/12 04:52:25;;;;;;;3.47;1.67;;;;;;;1.71;98.82;94193.50;5008694;28;20190;-54
2023/03/12 04:54:51;;;;;;;1.70;1.47;;;;;;;1.75;98.53;94194.09;5008862;28;20264;-54
2023/03/12 04:57:16;;;;;;;2.20;1.73;;;;;;;1.68;99.21;94181.94;5008483;28;20191;-55
2023/03/12 04:59:42;;;;;;;2.40;1.40;;;;;;;1.69;99.31;94181.06;5008774;28;20569;-54
2023/03/12 05:02:07;;;;;;;2.13;1.40;;;;;;;1.64;98.28;94214.75;5008388;28;20672;-54
2023/03/12 05:04:33;;;;;;;2.43;1.30;;;;;;;1.66;99.22;94202.94;5008437;28;20211;-55
2023/03/12 05:06:58;;;;;;;4.00;1.30;;;;;;;1.62;98.39;94217.34;5006895;28;20240;-56
2023/03/12 05:09:23;;;;;;;3.20;1.70;;;;;;;1.74;97.36;94240.09;5008872;28;20683;-55
2023/03/12 05:11:49;;;;;;;2.43;1.17;;;;;;;1.69;97.96;94222.81;5008449;28;20244;-56
2023/03/12 05:14:14;;;;;;;1.83;1.53;;;;;;;1.73;98.53;94199.22;5008495;28;20214;-59
2023/03/12 05:16:40;;;;;;;2.87;1.50;;;;;;;1.72;99.10;94184.28;5008437;28;20191;-57
2023/03/12 05:19:06;;;;;;;3.33;1.23;;;;;;;1.75;97.35;94254.22;5006910;28;20659;-58
2023/03/12 05:21:32;;;;;;;2.13;1.40;;;;;;;1.76;96.71;94269.16;5008251;28;20269;-53
2023/03/12 05:23:58;;;;;;;2.60;1.33;;;;;;;1.79;96.17;94293.25;5008119;28;20215;-52
2023/03/12 05:26:26;;;;;;;1.93;1.30;;;;;;;1.90;97.93;94243.34;5008668;28;20287;-53
2023/03/12 05:28:52;;;;;;;2.00;1.30;;;;;;;2.00;97.46;94269.47;5011055;28;20305;-53
2023/03/12 05:31:18;;;;;;;3.37;1.40;;;;;;;2.06;99.52;94207.25;5011184;28;20300;-54
2023/03/12 05:33:44;;;;;;;4.13;2.53;;;;;;;2.03;96.62;94292.66;5011083;28;20202;-52
2023/03/12 05:36:10;;;;;;;2.40;1.73;;;;;;;2.08;93.76;94367.59;5011021;28;20196;-56
2023/03/12 05:38:36;;;;;;;4.33;1.60;;;;;;;2.04;93.79;94358.63;5011116;28;20194;-56
2023/03/12 05:41:02;;;;;;;2.67;1.97;;;;;;;2.13;94.68;94341.38;5010837;28;20636;-54
2023/03/12 05:43:28;;;;;;;1.90;1.70;;;;;;;2.02;92.59;94385.47;5010874;28;20214;-58
2023/03/12 05:45:58;;;;;;;1.50;1.40;;;;;;;1.98;79.93;94369.00;5010799;28;20696;-56
2023/03/12 05:48:24;;;;;;;1.87;1.10;;;;;;;2.02;78.15;94342.88;5010978;28;20278;-57
2023/03/12 05:50:49;;;;;;;3.03;1.43;;;;;;;2.06;77.79;94352.63;5011028;28;20299;-52
2023/03/12 05:53:14;;;;;;;2.00;1.57;;;;;;;2.25;77.99;94334.81;5010947;28;20225;-53
2023/03/12 05:55:40;;;;;;;5.50;1.33;;;;;;;2.17;76.08;94395.44;5010862;28;20703;-51
2023/03/12 05:58:06;;;;;;;3.83;2.00;;;;;;;2.34;76.96;94364.41;5009364;28;20203;-54
2023/03/12 06:00:34;;;;;;;3.47;1.27;;;;;;;2.26;73.09;94384.88;5010514;28;20243;-53
2023/03/12 06:02:59;;;;;;;1.77;1.30;;;;;;;2.40;73.06;94377.38;5010597;28;20660;-53
2023/03/12 06:05:25;;;;;;;2.30;1.57;;;;;;;2.33;73.01;94365.28;5010632;28;20222;-57
2023/03/12 06:07:51;;;;;;;2.33;1.53;;;;;;;2.36;73.24;94340.03;5010355;28;20767;-56
2023/03/12 06:10:18;;;;;;;1.50;1.40;;;;;;;2.42;73.21;94372.28;5010530;28;20221;-55
2023/03/12 06:12:43;;;;;;;4.33;2.00;;;;;;;2.25;74.45;94334.81;5010493;28;20570;-56
2023/03/12 06:15:09;;;;;;;2.77;1.70;;;;;;;2.33;73.96;94362.78;5010377;28;20222;-54
2023/03/12 06:17:35;;;;;;;2.90;1.53;;;;;;;2.52;73.60;94368.34;5010455;28;20190;-55
2023/03/12 06:20:00;;;;;;;2.70;1.47;;;;;;;2.41;72.46;94383.19;5010755;28;20693;-55
2023/03/12 06:22:27;;;;;;;2.43;1.53;;;;;;;2.34;72.57;94389.47;5010382;28;20211;-56
2023/03/12 06:24:53;;;;;;;2.07;1.73;;;;;;;2.34;72.10;94407.03;5010814;28;20211;-52
2023/03/12 06:27:18;;;;;;;2.97;1.33;;;;;;;2.43;71.89;94402.28;5010202;28;20222;-54
2023/03/12 06:29:46;;;;;;;3.10;1.33;;;;;;;2.59;73.20;94366.31;5010559;28;20677;-53
2023/03/12 06:32:12;;;;;;;4.40;1.43;;;;;;;2.73;72.84;94412.25;5010359;28;20199;-52
2023/03/12 06:34:37;;;;;;;2.80;1.87;;;;;;;2.97;74.85;94348.03;5010439;28;20210;-53
2023/03/12 06:37:03;;;;;;;2.53;1.13;;;;;;;2.86;72.38;94420.69;5010073;28;20201;-54
2023/03/12 06:39:28;;;;;;;3.43;1.80;;;;;;;2.64;73.05;94405.28;5009451;28;20215;-53
2023/03/12 06:41:54;;;;;;;2.47;1.80;;;;;;;2.53;73.41;94372.47;5010170;28;20195;-54
2023/03/12 06:44:20;;;;;;;3.47;1.90;;;;;;;2.43;74.12;94377.22;5010398;28;20207;-55
2023/03/12 06:46:46;;;;;;;2.10;1.57;;;;;;;2.54;73.25;94379.09;5009915;28;20214;-53
2023/03/12 06:49:12;;;;;;;2.13;1.70;;;;;;;2.77;73.68;94378.53;5008890;28;20246;-55
2023/03/12 06:51:37;;;;;;;2.43;1.70;;;;;;;2.92;73.67;94380.16;5008755;28;20191;-56
2023/03/12 06:54:03;;;;;;;1.87;1.60;;;;;;;2.68;74.26;94371.56;5008657;28;20218;-62
2023/03/12 06:56:29;;;;;;;2.57;1.63;;;;;;;2.80;74.50;94365.84;5008776;28;20187;-59
2023/03/12 06:58:55;;;;;;;1.67;1.40;;;;;;;2.59;74.58;94351.25;5010105;28;20223;-52
2023/03/12 07:01:21;;;;;;;1.73;1.47;;;;;;;2.80;74.90;94354.97;5010171;28;20191;-53
2023/03/12 07:03:46;;;;;;;3.00;1.50;;;;;;;2.91;74.34;94401.13;5010076;28;20240;-54
2023/03/12 07:06:17;;;;;;;1.50;1.40;;;;;;;2.63;72.88;94423.72;5009767;28;20590;-55
2023/03/12 07:08:43;;;;;;;2.90;2.00;;;;;;;2.57;73.29;94414.03;5009873;28;20211;-53
2023/03/12 07:11:09;;;;;;;2.73;1.57;;;;;;;2.42;72.79;94437.50;5009786;28;20201;-56
2023/03/12 07:13:35;;;;;;;2.13;1.60;;;;;;;2.69;73.22;94443.44;5009894;28;20206;-57
2023/03/12 07:16:01;;;;;;;1.63;1.53;;;;;;;2.74;71.80;94483.31;5008457;28;20644;-57
2023/03/12 07:18:27;;;;;;;2.17;1.60;;;;;;;2.75;71.82;94495.78;5009615;28;20199;-55
2023/03/12 07:20:53;;;;;;;2.80;1.43;;;;;;;2.83;70.32;94530.50;5009659;28;20600;-55
2023/03/12 07:23:19;;;;;;;1.80;1.20;;;;;;;2.97;70.30;94525.50;5009561;28;20222;-53
2023/03/12 07:25:44;;;;;;;2.47;1.53;;;;;;;3.18;70.00;94535.09;5009657;28;20214;-53
2023/03/12 07:28:11;;;;;;;1.57;1.40;;;;;;;3.31;69.86;94561.09;5009520;28;20664;-53
2023/03/12 07:30:37;;;;;;;2.87;1.63;;;;;;;3.29;68.64;94597.25;5009764;28;20263;-54
2023/03/12 07:33:03;;;;;;;1.83;1.33;;;;;;;3.25;66.97;94629.25;5009564;28;20191;-53
2023/03/12 07:35:30;;;;;;;3.97;1.50;;;;;;;3.30;69.05;94581.28;5009336;28;20618;-53
2023/03/12 07:37:55;;;;;;;5.30;2.33;;;;;;;3.46;68.95;94582.00;5009371;28;20652;-53
2023/03/12 07:40:21;;;;;;;2.10;1.90;;;;;;;3.65;68.71;94590.09;5009459;28;20239;-53
2023/03/12 07:42:47;;;;;;;4.27;1.40;;;;;;;3.54;68.02;94579.03;5009439;28;20572;-53
2023/03/12 07:45:12;;;;;;;1.60;1.30;;;;;;;3.55;66.48;94640.97;5009285;28;20717;-52
2023/03/12 07:47:38;;;;;;;2.00;1.60;;;;;;;3.26;64.63;94696.19;5009194;28;20601;-56
2023/03/12 07:50:03;;;;;;;3.67;1.60;;;;;;;3.34;66.88;94633.78;5009585;28;20226;-58
2023/03/12 07:52:29;;;;;;;2.40;1.13;;;;;;;3.63;65.51;94672.31;5007947;28;20195;-57
2023/03/12 07:54:55;;;;;;;2.90;1.40;;;;;;;3.75;67.43;94610.47;5009649;28;20221;-53
2023/03/12 07:57:21;;;;;;;1.13;1.03;;;;;;;3.54;64.56;94704.69;5009141;28;20266;-53
2023/03/12 07:59:46;;;;;;;2.70;1.50;;;;;;;3.76;65.68;94650.59;5009385;28;20211;-53
2023/03/12 08:02:12;;;;;;;1.40;1.30;;;;;;;3.70;64.00;94701.22;5009301;28;20638;-53
2023/03/12 08:04:38;;;;;;;1.80;1.50;;;;;;;3.66;65.13;94667.09;5009216;28;20208;-56
2023/03/12 08:07:04;;;;;;;1.77;1.50;;;;;;;3.86;63.90;94731.28;5009078;28;20210;-55
2023/03/12 08:09:29;;;;;;;0.83;0.73;;;;;;;3.33;62.48;94750.22;5009194;28;20218;-54
2023/03/12 08:11:55;;;;;;;1.77;1.50;;;;;;;3.33;63.18;94727.59;5009246;28;20217;-55
2023/03/12 08:14:20;;;;;;;1.60;1.33;;;;;;;3.19;63.98;94699.94;5009451;28;20218;-54
2023/03/12 08:16:45;;;;;;;3.10;1.20;;;;;;;3.18;63.58;94723.44;5008958;28;20190;-52
2023/03/12 08:19:11;;;;;;;3.43;1.90;;;;;;;3.30;64.56;94684.25;5009030;28;20745;-57
2023/03/12 08:21:36;;;;;;;1.80;1.60;;;;;;;3.18;61.99;94783.72;5007611;28;20190;-56
2023/03/12 08:24:02;;;;;;;2.10;1.90;;;;;;;2.94;62.42;94737.31;5008989;28;20270;-56
2023/03/12 08:26:27;;;;;;;2.67;2.00;;;;;;;3.24;62.72;94715.56;5008926;28;20330;-53
2023/03/12 08:28:53;;;;;;;2.03;1.30;;;;;;;3.48;62.16;94690.75;5009009;28;20222;-53
2023/03/12 08:31:18;;;;;;;2.43;1.80;;;;;;;3.32;62.05;94673.25;5008950;28;20576;-54
2023/03/12 08:33:45;;;;;;;1.73;1.33;;;;;;;3.39;63.36;94666.19;5009000;28;20205;-53
2023/03/12 08:36:12;;;;;;;2.60;1.50;;;;;;;3.46;64.20;94661.59;5008867;28;20195;-53
2023/03/12 08:38:37;;;;;;;2.73;1.60;;;;;;;3.68;63.10;94654.44;5008709;28;20192;-53
2023/03/12 08:41:02;;;;;;;3.33;1.70;;;;;;;3.99;63.13;94661.81;5008766;28;20197;-52
2023/03/12 08:43:28;;;;;;;2.67;1.90;;;;;;;4.04;60.63;94737.81;5008747;28;20209;-58
2023/03/12 08:45:59;;;;;;;2.17;1.60;;;;;;;4.03;59.74;94734.47;5007395;28;20203;-54
2023/03/12 08:48:25;;;;;;;2.07;1.30;;;;;;;4.37;60.18;94712.34;5008944;28;20214;-56
2023/03/12 08:50:54;;;;;;;1.97;1.47;;;;;;;4.53;59.72;94733.19;5008529;28;20209;-53
2023/03/12 08:53:19;;;;;;;1.77;1.40;;;;;;;4.39;57.83;94766.72;5008479;28;20190;-57
2023/03/12 08:55:45;;;;;;;1.40;1.27;;;;;;;4.36;59.06;94730.88;5008381;28;20571;-53
2023/03/12 08:58:10;;;;;;;2.53;1.60;;;;;;;4.50;59.62;94708.22;5008507;28;20204;-54
2023/03/12 09:00:36;;;;;;;2.13;1.57;;;;;;;4.54;58.28;94728.06;5007817;28;20216;-55
2023/03/12 09:03:01;;;;;;;2.60;1.73;;;;;;;5.37;58.55;94732.13;5008060;28;20570;-55
2023/03/12 09:05:29;;;;;;;2.50;1.40;;;;;;;5.78;56.48;94765.59;5008375;28;20212;-59
2023/03/12 09:07:57;;;;;;;1.93;1.67;;;;;;;5.30;55.55;94753.56;5008114;28;20213;-53
2023/03/12 09:10:24;;;;;;;2.40;1.63;;;;;;;4.78;55.83;94725.78;5008338;28;20210;-55
2023/03/12 09:12:49;;;;;;;2.47;1.60;;;;;;;5.31;56.72;94715.69;5008205;28;20287;-57
2023/03/12 09:15:15;;;;;;;2.20;1.80;;;;;;;5.16;57.32;94703.25;5008180;28;20641;-53
2023/03/12 09:17:40;;;;;;;5.50;2.23;;;;;;;4.88;56.49;94722.59;5008308;28;20222;-56
2023/03/12 09:20:08;;;;;;;1.83;1.50;;;;;;;5.32;55.94;94714.78;5006786;28;20215;-56
2023/03/12 09:22:38;;;;;;;1.73;1.53;;;;;;;5.33;55.51;94716.41;5006766;28;20190;-58
2023/03/12 09:25:04;;;;;;;2.10;1.67;;;;;;;5.11;57.53;94659.00;5016089;22;20682;-54
2023/03/12 09:27:30;;;;;;;3.80;1.80;;;;;;;5.32;57.56;94668.59;5089605;28;20689;-57
2023/03/12 09:29:55;;;;;;;3.13;1.90;;;;;;;5.92;56.17;94699.94;5090575;28;20670;-54
2023/03/12 09:32:20;;;;;;;3.27;1.70;;;;;;;5.92;56.51;94687.34;5090604;28;20210;-56
2023/03/12 09:34:46;;;;;;;2.67;1.90;;;;;;;5.94;56.38;94683.81;5090673;28;20205;-56
2023/03/12 09:37:11;;;;;;;3.77;1.80;;;;;;;5.95;54.81;94719.94;5090967;28;20199;-52
2023/03/12 09:39:37;;;;;;;1.77;1.57;;;;;;;6.01;53.73;94728.81;5090557;28;20258;-57
2023/03/12 09:42:05;;;;;;;1.43;1.33;;;;;;;6.13;54.26;94738.91;5072551;28;20283;-54
2023/03/12 09:44:43;;;;;;;2.33;1.60;;;;;;;6.35;52.27;94764.34;5090283;28;20211;-55
2023/03/12 09:47:22;;;;;;;2.20;1.50;;;;;;;6.44;52.72;94738.50;5090558;28;20202;-54
2023/03/12 09:49:56;;;;;;;2.13;1.67;;;;;;;6.67;53.22;94724.28;5090263;28;20239;-56
2023/03/12 09:52:31;;;;;;;2.20;1.93;;;;;;;7.06;51.42;94782.22;5090267;28;20199;-58
2023/03/12 09:55:16;;;;;;;1.50;1.17;;;;;;;7.18;51.42;94750.22;5090197;28;20215;-56
2023/03/12 09:57:46;;;;;;;3.17;1.83;;;;;;;7.78;51.03;94760.25;5090551;28;20191;-55
2023/03/12 10:00:15;;;;;;;2.90;1.70;;;;;;;7.11;50.05;94764.19;5090265;28;20208;-55
2023/03/12 10:03:09;;;;;;;2.13;1.60;;;;;;;7.47;48.28;94810.47;5090183;28;20199;-57
2023/03/12 10:06:06;;;;;;;1.63;1.53;;;;;;;7.08;49.86;94746.72;5090208;28;20207;-57
2023/03/12 10:08:44;;;;;;;2.00;1.70;;;;;;;7.14;50.05;94736.97;5090157;28;20183;-53
2023/03/12 10:11:28;;;;;;;1.80;1.60;;;;;;;7.76;51.46;94679.38;5090210;28;20194;-56
2023/03/12 10:14:06;;;;;;;4.87;2.40;;;;;;;7.73;49.14;94752.97;5074864;28;20210;-58
2023/03/12 10:17:09;;;;;;;3.60;2.43;;;;;;;8.28;48.96;94697.38;5092405;28;20191;-57
2023/03/12 10:19:49;;;;;;;2.93;2.20;;;;;;;8.66;47.19;94800.13;5093548;28;20253;-56
2023/03/12 10:22:29;;;;;;;4.27;2.37;;;;;;;7.67;47.14;94778.72;5093830;28;20191;-54
2023/03/12 10:25:21;;;;;;;2.63;1.90;;;;;;;7.55;47.19;94780.38;5093385;28;20696;-57
2023/03/12 10:27:47;;;;;;;3.27;1.70;;;;;;;8.11;46.29;94794.03;5093428;28;20219;-55
2023/03/12 10:30:20;;;;;;;2.40;1.70;;;;;;;7.77;46.54;94768.72;5093302;28;20204;-57
2023/03/12 10:32:52;;;;;;;2.00;1.80;;;;;;;7.44;45.70;94739.06;5093385;28;20217;-57
2023/03/12 10:35:20;;;;;;;4.37;1.60;;;;;;;7.50;47.64;94719.22;5093256;28;20200;-57
2023/03/12 10:37:50;;;;;;;2.90;1.60;;;;;;;7.94;48.63;94672.16;5093337;28;20245;-59
2023/03/12 10:40:22;;;;;;;1.37;1.27;;;;;;;7.84;46.99;94745.41;5101226;22;20216;-57
2023/03/12 10:42:48;;;;;;;1.83;1.30;;;;;;;7.52;47.05;94751.97;5093228;28;20188;-58
2023/03/12 10:45:26;;;;;;;1.43;1.23;;;;;;;8.07;47.25;94739.47;5093711;28;20211;-55
2023/03/12 10:47:56;;;;;;;1.70;1.60;;;;;;;7.96;44.71;94800.19;5093318;28;20212;-59
2023/03/12 10:50:23;;;;;;;2.77;1.83;;;;;;;7.81;45.65;94760.00;5093370;28;20711;-58
2023/03/12 10:52:51;;;;;;;3.30;1.80;;;;;;;7.78;46.68;94735.72;5093189;28;20191;-59
2023/03/12 10:55:28;;;;;;;2.00;1.40;;;;;;;8.95;47.92;94674.50;5093043;28;20661;-60
2023/03/12 10:57:55;;;;;;;1.67;1.47;;;;;;;8.75;45.21;94784.22;5092897;28;20287;-58
2023/03/12 11:00:27;;;;;;;2.17;1.50;;;;;;;9.34;46.00;94750.00;5093167;28;20348;-54
2023/03/12 11:03:02;;;;;;;2.97;1.67;;;;;;;8.45;45.06;94760.28;5093055;28;20589;-57
2023/03/12 11:05:34;;;;;;;2.30;1.70;;;;;;;8.70;45.60;94741.50;5074761;28;20207;-59
2023/03/12 11:08:03;;;;;;;1.60;1.40;;;;;;;9.08;43.53;94791.81;5092893;28;20211;-57
2023/03/12 11:10:31;;;;;;;2.20;1.67;;;;;;;9.72;44.72;94757.13;5092990;28;20245;-57
2023/03/12 11:12:58;;;;;;;2.10;1.47;;;;;;;10.54;44.03;94769.03;5092742;28;20267;-58
2023/03/12 11:15:27;;;;;;;2.10;1.40;;;;;;;11.40;42.78;94817.66;5092818;28;20770;-58
2023/03/12 11:18:33;;;;;;;1.63;1.53;;;;;;;11.05;39.87;94878.34;5092706;28;20200;-53
2023/03/12 11:21:07;;;;;;;1.70;1.47;;;;;;;9.74;39.47;94847.47;5092190;28;20204;-56
2023/03/12 11:23:34;;;;;;;1.80;1.70;;;;;;;10.34;41.25;94767.34;5092298;28;20668;-55
2023/03/12 11:26:10;;;;;;;1.40;1.30;;;;;;;10.29;40.33;94792.31;5092135;28;20230;-53
2023/03/12 11:28:40;;;;;;;2.00;1.43;;;;;;;10.69;40.55;94776.19;5092538;28;20216;-55
2023/03/12 11:31:26;;;;;;;5.07;2.40;;;;;;;11.27;38.77;94828.06;5092684;28;20188;-54
2023/03/12 11:33:56;;;;;;;5.43;2.37;;;;;;;11.36;40.64;94768.75;5092712;28;20596;-54
2023/03/12 11:36:50;;;;;;;2.50;1.40;;;;;;;9.92;38.73;94799.50;5074169;28;20193;-54
2023/03/12 11:39:37;;;;;;;2.40;1.73;;;;;;;9.80;41.10;94691.31;5092650;28;20692;-55
2023/03/12 11:42:23;;;;;;;1.40;1.17;;;;;;;11.16;39.24;94777.28;5092489;28;20653;-56
2023/03/12 11:45:17;;;;;;;1.43;1.23;;;;;;;10.39;38.85;94773.66;5092780;28;20231;-58